sensor_id;sensor_type;location;lat;lon;timestamp;P1;durP1;ratioP1;P2;durP2;ratioP2
41179;SDS011;26913;48.240;16.496;2023-04-06T00:00:18;5.70;;;4.20;;
41179;SDS011;26913;48.240;16.496;2023-04-06T00:02:43;10.23;;;4.93;;
41179;SDS011;26913;48.240;16.496;2023-04-06T00:05:09;8.67;;;3.77;;
41179;SDS011;26913;48.240;16.496;2023-04-06T00:07:35;10.10;;;4.40;;
41179;SDS011;26913;48.240;16.496;2023-04-06T00:10:01;4.60;;;3.97;;
41179;SDS011;26913;48.240;16.496;2023-04-06T00:12:26;5.47;;;3.45;;
41179;SDS011;26913;48.240;16.496;2023-04-06T00:14:52;6.20;;;4.33;;
41179;SDS011;26913;48.240;16.496;2023-04-06T00:17:17;7.40;;;4.65;;
41179;SDS011;26913;48.240;16.496;2023-04-06T00:19:43;6.43;;;4.20;;
41179;SDS011;26913;48.240;16.496;2023-04-06T00:22:08;4.63;;;3.80;;
41179;SDS011;26913;48.240;16.496;2023-04-06T00:24:34;5.77;;;3.77;;
41179;SDS011;26913;48.240;16.496;2023-04-06T00:27:00;6.63;;;3.97;;
41179;SDS011;26913;48.240;16.496;2023-04-06T00:29:26;5.10;;;3.77;;
41179;SDS011;26913;48.240;16.496;2023-04-06T00:31:51;7.47;;;4.23;;
41179;SDS011;26913;48.240;16.496;2023-04-06T00:34:17;5.27;;;4.37;;
41179;SDS011;26913;48.240;16.496;2023-04-06T00:36:42;9.17;;;4.27;;
41179;SDS011;26913;48.240;16.496;2023-04-06T00:39:08;6.27;;;4.30;;
41179;SDS011;26913;48.240;16.496;2023-04-06T00:41:33;8.17;;;4.63;;
41179;SDS011;26913;48.240;16.496;2023-04-06T00:43:59;6.83;;;4.30;;
41179;SDS011;26913;48.240;16.496;2023-04-06T00:46:24;5.00;;;3.78;;
41179;SDS011;26913;48.240;16.496;2023-04-06T00:48:50;6.63;;;4.03;;
41179;SDS011;26913;48.240;16.496;2023-04-06T00:51:15;6.87;;;4.33;;
41179;SDS011;26913;48.240;16.496;2023-04-06T00:53:40;5.93;;;4.20;;
41179;SDS011;26913;48.240;16.496;2023-04-06T00:56:06;6.60;;;3.67;;
41179;SDS011;26913;48.240;16.496;2023-04-06T00:58:34;10.25;;;5.07;;
41179;SDS011;26913;48.240;16.496;2023-04-06T01:01:03;8.82;;;4.75;;
41179;SDS011;26913;48.240;16.496;2023-04-06T01:03:28;4.05;;;3.65;;
41179;SDS011;26913;48.240;16.496;2023-04-06T01:05:54;6.70;;;4.90;;
41179;SDS011;26913;48.240;16.496;2023-04-06T01:08:23;5.72;;;4.30;;
41179;SDS011;26913;48.240;16.496;2023-04-06T01:10:49;7.53;;;4.43;;
41179;SDS011;26913;48.240;16.496;2023-04-06T01:13:15;7.60;;;4.17;;
41179;SDS011;26913;48.240;16.496;2023-04-06T01:15:40;6.72;;;3.83;;
41179;SDS011;26913;48.240;16.496;2023-04-06T01:18:07;7.30;;;4.68;;
41179;SDS011;26913;48.240;16.496;2023-04-06T01:20:35;8.10;;;4.70;;
41179;SDS011;26913;48.240;16.496;2023-04-06T01:23:01;6.70;;;5.10;;
41179;SDS011;26913;48.240;16.496;2023-04-06T01:25:26;8.97;;;5.20;;
41179;SDS011;26913;48.240;16.496;2023-04-06T01:27:52;6.43;;;4.67;;
41179;SDS011;26913;48.240;16.496;2023-04-06T01:30:17;5.87;;;4.43;;
41179;SDS011;26913;48.240;16.496;2023-04-06T01:32:43;8.87;;;5.97;;
41179;SDS011;26913;48.240;16.496;2023-04-06T01:35:09;5.67;;;4.10;;
41179;SDS011;26913;48.240;16.496;2023-04-06T01:37:34;8.50;;;4.50;;
41179;SDS011;26913;48.240;16.496;2023-04-06T01:40:00;7.00;;;4.55;;
41179;SDS011;26913;48.240;16.496;2023-04-06T01:42:25;5.40;;;4.70;;
41179;SDS011;26913;48.240;16.496;2023-04-06T01:44:54;6.67;;;4.43;;
41179;SDS011;26913;48.240;16.496;2023-04-06T01:47:22;5.60;;;4.73;;
41179;SDS011;26913;48.240;16.496;2023-04-06T01:49:48;6.60;;;4.60;;
41179;SDS011;26913;48.240;16.496;2023-04-06T01:52:13;9.43;;;5.00;;
41179;SDS011;26913;48.240;16.496;2023-04-06T01:54:39;5.17;;;3.73;;
41179;SDS011;26913;48.240;16.496;2023-04-06T01:57:04;7.23;;;4.53;;
41179;SDS011;26913;48.240;16.496;2023-04-06T01:59:30;6.60;;;4.43;;
41179;SDS011;26913;48.240;16.496;2023-04-06T02:01:56;7.03;;;3.77;;
41179;SDS011;26913;48.240;16.496;2023-04-06T02:04:21;8.20;;;4.05;;
41179;SDS011;26913;48.240;16.496;2023-04-06T02:06:47;5.68;;;4.53;;
41179;SDS011;26913;48.240;16.496;2023-04-06T02:09:12;5.97;;;3.97;;
41179;SDS011;26913;48.240;16.496;2023-04-06T02:11:38;9.97;;;4.80;;
41179;SDS011;26913;48.240;16.496;2023-04-06T02:14:03;5.57;;;4.03;;
41179;SDS011;26913;48.240;16.496;2023-04-06T02:16:28;9.77;;;4.80;;
41179;SDS011;26913;48.240;16.496;2023-04-06T02:18:54;5.97;;;4.50;;
41179;SDS011;26913;48.240;16.496;2023-04-06T02:21:20;5.13;;;4.03;;
41179;SDS011;26913;48.240;16.496;2023-04-06T02:23:45;7.45;;;4.63;;
41179;SDS011;26913;48.240;16.496;2023-04-06T02:26:12;7.63;;;4.83;;
41179;SDS011;26913;48.240;16.496;2023-04-06T02:28:38;4.47;;;3.67;;
41179;SDS011;26913;48.240;16.496;2023-04-06T02:31:03;5.53;;;4.07;;
41179;SDS011;26913;48.240;16.496;2023-04-06T02:33:29;5.70;;;3.80;;
41179;SDS011;26913;48.240;16.496;2023-04-06T02:35:54;4.70;;;3.33;;
41179;SDS011;26913;48.240;16.496;2023-04-06T02:38:20;6.07;;;4.47;;
41179;SDS011;26913;48.240;16.496;2023-04-06T02:40:45;5.63;;;4.67;;
41179;SDS011;26913;48.240;16.496;2023-04-06T02:43:10;5.10;;;4.40;;
41179;SDS011;26913;48.240;16.496;2023-04-06T02:45:36;7.30;;;4.30;;
41179;SDS011;26913;48.240;16.496;2023-04-06T02:48:01;8.17;;;4.30;;
41179;SDS011;26913;48.240;16.496;2023-04-06T02:50:27;4.73;;;3.40;;
41179;SDS011;26913;48.240;16.496;2023-04-06T02:52:52;5.87;;;4.63;;
41179;SDS011;26913;48.240;16.496;2023-04-06T02:55:18;5.97;;;3.90;;
41179;SDS011;26913;48.240;16.496;2023-04-06T02:57:44;5.30;;;4.07;;
41179;SDS011;26913;48.240;16.496;2023-04-06T03:00:10;6.93;;;4.00;;
41179;SDS011;26913;48.240;16.496;2023-04-06T03:02:39;6.37;;;4.50;;
41179;SDS011;26913;48.240;16.496;2023-04-06T03:05:05;4.33;;;3.87;;
41179;SDS011;26913;48.240;16.496;2023-04-06T03:07:31;6.90;;;5.07;;
41179;SDS011;26913;48.240;16.496;2023-04-06T03:09:56;7.63;;;5.47;;
41179;SDS011;26913;48.240;16.496;2023-04-06T03:12:22;6.60;;;4.23;;
41179;SDS011;26913;48.240;16.496;2023-04-06T03:14:47;4.73;;;4.13;;
41179;SDS011;26913;48.240;16.496;2023-04-06T03:17:12;4.40;;;4.00;;
41179;SDS011;26913;48.240;16.496;2023-04-06T03:19:38;8.03;;;4.43;;
41179;SDS011;26913;48.240;16.496;2023-04-06T03:22:03;7.17;;;4.37;;
41179;SDS011;26913;48.240;16.496;2023-04-06T03:24:29;9.33;;;4.37;;
41179;SDS011;26913;48.240;16.496;2023-04-06T03:26:54;4.47;;;3.27;;
41179;SDS011;26913;48.240;16.496;2023-04-06T03:29:20;6.47;;;4.40;;
41179;SDS011;26913;48.240;16.496;2023-04-06T03:31:45;6.43;;;4.23;;
41179;SDS011;26913;48.240;16.496;2023-04-06T03:34:11;5.60;;;4.43;;
41179;SDS011;26913;48.240;16.496;2023-04-06T03:36:36;9.17;;;4.30;;
41179;SDS011;26913;48.240;16.496;2023-04-06T03:39:02;8.27;;;5.07;;
41179;SDS011;26913;48.240;16.496;2023-04-06T03:41:27;4.70;;;3.87;;
41179;SDS011;26913;48.240;16.496;2023-04-06T03:43:53;5.50;;;4.37;;
41179;SDS011;26913;48.240;16.496;2023-04-06T03:46:18;4.70;;;4.00;;
41179;SDS011;26913;48.240;16.496;2023-04-06T03:48:44;6.23;;;4.07;;
41179;SDS011;26913;48.240;16.496;2023-04-06T03:51:10;5.03;;;3.87;;
41179;SDS011;26913;48.240;16.496;2023-04-06T03:53:36;8.03;;;4.43;;
41179;SDS011;26913;48.240;16.496;2023-04-06T03:56:02;7.83;;;5.00;;
41179;SDS011;26913;48.240;16.496;2023-04-06T03:58:27;7.23;;;4.43;;
41179;SDS011;26913;48.240;16.496;2023-04-06T04:00:53;7.67;;;4.70;;
41179;SDS011;26913;48.240;16.496;2023-04-06T04:03:18;10.87;;;4.33;;
41179;SDS011;26913;48.240;16.496;2023-04-06T04:05:44;6.83;;;4.10;;
41179;SDS011;26913;48.240;16.496;2023-04-06T04:08:10;8.50;;;4.20;;
41179;SDS011;26913;48.240;16.496;2023-04-06T04:10:35;6.47;;;3.97;;
41179;SDS011;26913;48.240;16.496;2023-04-06T04:13:01;6.83;;;4.13;;
41179;SDS011;26913;48.240;16.496;2023-04-06T04:15:26;4.67;;;3.87;;
41179;SDS011;26913;48.240;16.496;2023-04-06T04:17:51;5.67;;;3.77;;
41179;SDS011;26913;48.240;16.496;2023-04-06T04:20:17;5.40;;;4.10;;
41179;SDS011;26913;48.240;16.496;2023-04-06T04:22:42;6.87;;;5.30;;
41179;SDS011;26913;48.240;16.496;2023-04-06T04:25:08;6.13;;;4.00;;
41179;SDS011;26913;48.240;16.496;2023-04-06T04:27:34;7.80;;;3.97;;
41179;SDS011;26913;48.240;16.496;2023-04-06T04:30:00;7.83;;;4.63;;
41179;SDS011;26913;48.240;16.496;2023-04-06T04:32:25;13.33;;;4.40;;
41179;SDS011;26913;48.240;16.496;2023-04-06T04:34:52;7.93;;;4.00;;
41179;SDS011;26913;48.240;16.496;2023-04-06T04:37:18;5.60;;;4.40;;
41179;SDS011;26913;48.240;16.496;2023-04-06T04:39:44;5.80;;;4.17;;
41179;SDS011;26913;48.240;16.496;2023-04-06T04:42:10;11.23;;;4.73;;
41179;SDS011;26913;48.240;16.496;2023-04-06T04:44:36;7.53;;;4.57;;
41179;SDS011;26913;48.240;16.496;2023-04-06T04:47:04;9.77;;;4.87;;
41179;SDS011;26913;48.240;16.496;2023-04-06T04:49:30;5.33;;;4.00;;
41179;SDS011;26913;48.240;16.496;2023-04-06T04:51:55;12.53;;;5.00;;
41179;SDS011;26913;48.240;16.496;2023-04-06T04:54:21;11.07;;;5.33;;
41179;SDS011;26913;48.240;16.496;2023-04-06T04:56:46;8.37;;;4.80;;
41179;SDS011;26913;48.240;16.496;2023-04-06T04:59:12;6.43;;;4.70;;
41179;SDS011;26913;48.240;16.496;2023-04-06T05:01:37;10.40;;;6.37;;
41179;SDS011;26913;48.240;16.496;2023-04-06T05:04:02;14.53;;;4.90;;
41179;SDS011;26913;48.240;16.496;2023-04-06T05:06:28;7.07;;;5.07;;
41179;SDS011;26913;48.240;16.496;2023-04-06T05:08:53;9.07;;;5.50;;
41179;SDS011;26913;48.240;16.496;2023-04-06T05:11:19;7.93;;;4.70;;
41179;SDS011;26913;48.240;16.496;2023-04-06T05:13:46;9.70;;;5.77;;
41179;SDS011;26913;48.240;16.496;2023-04-06T05:16:11;10.07;;;5.50;;
41179;SDS011;26913;48.240;16.496;2023-04-06T05:18:37;9.63;;;5.30;;
41179;SDS011;26913;48.240;16.496;2023-04-06T05:21:02;12.93;;;6.10;;
41179;SDS011;26913;48.240;16.496;2023-04-06T05:23:28;8.13;;;4.90;;
41179;SDS011;26913;48.240;16.496;2023-04-06T05:25:53;11.67;;;6.03;;
41179;SDS011;26913;48.240;16.496;2023-04-06T05:28:19;15.13;;;5.90;;
41179;SDS011;26913;48.240;16.496;2023-04-06T05:30:45;10.10;;;5.80;;
41179;SDS011;26913;48.240;16.496;2023-04-06T05:33:11;10.63;;;6.33;;
41179;SDS011;26913;48.240;16.496;2023-04-06T05:35:36;7.87;;;5.53;;
41179;SDS011;26913;48.240;16.496;2023-04-06T05:38:02;10.57;;;5.93;;
41179;SDS011;26913;48.240;16.496;2023-04-06T05:40:27;13.73;;;5.93;;
41179;SDS011;26913;48.240;16.496;2023-04-06T05:42:53;18.17;;;6.23;;
41179;SDS011;26913;48.240;16.496;2023-04-06T05:45:19;10.97;;;6.23;;
41179;SDS011;26913;48.240;16.496;2023-04-06T05:47:46;9.83;;;5.60;;
41179;SDS011;26913;48.240;16.496;2023-04-06T05:50:11;12.87;;;6.50;;
41179;SDS011;26913;48.240;16.496;2023-04-06T05:52:39;12.97;;;6.23;;
41179;SDS011;26913;48.240;16.496;2023-04-06T05:55:08;12.43;;;6.63;;
41179;SDS011;26913;48.240;16.496;2023-04-06T05:57:34;15.00;;;6.60;;
41179;SDS011;26913;48.240;16.496;2023-04-06T05:59:59;10.93;;;6.30;;
41179;SDS011;26913;48.240;16.496;2023-04-06T06:02:25;8.43;;;5.70;;
41179;SDS011;26913;48.240;16.496;2023-04-06T06:04:51;14.73;;;6.03;;
41179;SDS011;26913;48.240;16.496;2023-04-06T06:07:16;22.23;;;7.13;;
41179;SDS011;26913;48.240;16.496;2023-04-06T06:09:42;15.35;;;8.82;;
41179;SDS011;26913;48.240;16.496;2023-04-06T06:12:07;12.15;;;9.13;;
41179;SDS011;26913;48.240;16.496;2023-04-06T06:14:33;14.30;;;7.60;;
41179;SDS011;26913;48.240;16.496;2023-04-06T06:16:58;12.63;;;7.07;;
41179;SDS011;26913;48.240;16.496;2023-04-06T06:19:24;10.35;;;6.50;;
41179;SDS011;26913;48.240;16.496;2023-04-06T06:21:49;11.63;;;6.53;;
41179;SDS011;26913;48.240;16.496;2023-04-06T06:24:15;8.40;;;6.53;;
41179;SDS011;26913;48.240;16.496;2023-04-06T06:26:40;20.00;;;11.43;;
41179;SDS011;26913;48.240;16.496;2023-04-06T06:29:06;16.42;;;9.68;;
41179;SDS011;26913;48.240;16.496;2023-04-06T06:31:32;14.32;;;6.57;;
41179;SDS011;26913;48.240;16.496;2023-04-06T06:33:57;13.10;;;6.38;;
41179;SDS011;26913;48.240;16.496;2023-04-06T06:36:23;9.30;;;5.97;;
41179;SDS011;26913;48.240;16.496;2023-04-06T06:38:48;8.65;;;6.75;;
41179;SDS011;26913;48.240;16.496;2023-04-06T06:41:14;9.68;;;7.25;;
41179;SDS011;26913;48.240;16.496;2023-04-06T06:43:39;9.27;;;6.72;;
41179;SDS011;26913;48.240;16.496;2023-04-06T06:46:05;13.52;;;6.80;;
41179;SDS011;26913;48.240;16.496;2023-04-06T06:48:31;11.32;;;7.10;;
41179;SDS011;26913;48.240;16.496;2023-04-06T06:50:56;10.05;;;6.25;;
41179;SDS011;26913;48.240;16.496;2023-04-06T06:53:23;18.30;;;8.00;;
41179;SDS011;26913;48.240;16.496;2023-04-06T06:55:49;10.13;;;6.78;;
41179;SDS011;26913;48.240;16.496;2023-04-06T06:58:14;12.50;;;7.00;;
41179;SDS011;26913;48.240;16.496;2023-04-06T07:00:40;10.38;;;6.57;;
41179;SDS011;26913;48.240;16.496;2023-04-06T07:03:06;10.95;;;6.13;;
41179;SDS011;26913;48.240;16.496;2023-04-06T07:05:31;9.98;;;7.30;;
41179;SDS011;26913;48.240;16.496;2023-04-06T07:07:57;9.93;;;7.13;;
41179;SDS011;26913;48.240;16.496;2023-04-06T07:10:23;9.32;;;6.75;;
41179;SDS011;26913;48.240;16.496;2023-04-06T07:12:48;10.60;;;8.02;;
41179;SDS011;26913;48.240;16.496;2023-04-06T07:15:14;11.07;;;6.40;;
41179;SDS011;26913;48.240;16.496;2023-04-06T07:17:39;10.65;;;7.28;;
41179;SDS011;26913;48.240;16.496;2023-04-06T07:20:10;8.77;;;6.65;;
41179;SDS011;26913;48.240;16.496;2023-04-06T07:22:36;8.50;;;6.40;;
41179;SDS011;26913;48.240;16.496;2023-04-06T07:25:01;9.07;;;6.95;;
41179;SDS011;26913;48.240;16.496;2023-04-06T07:27:27;9.95;;;6.18;;
41179;SDS011;26913;48.240;16.496;2023-04-06T07:29:52;9.32;;;5.82;;
41179;SDS011;26913;48.240;16.496;2023-04-06T07:32:17;13.70;;;7.13;;
41179;SDS011;26913;48.240;16.496;2023-04-06T07:34:43;11.93;;;5.53;;
41179;SDS011;26913;48.240;16.496;2023-04-06T07:37:10;11.38;;;6.65;;
41179;SDS011;26913;48.240;16.496;2023-04-06T07:39:35;10.20;;;6.15;;
41179;SDS011;26913;48.240;16.496;2023-04-06T07:42:01;15.63;;;6.40;;
41179;SDS011;26913;48.240;16.496;2023-04-06T07:44:26;11.57;;;6.22;;
41179;SDS011;26913;48.240;16.496;2023-04-06T07:46:52;11.55;;;5.10;;
41179;SDS011;26913;48.240;16.496;2023-04-06T07:49:17;13.43;;;5.45;;
41179;SDS011;26913;48.240;16.496;2023-04-06T07:51:43;5.40;;;4.22;;
41179;SDS011;26913;48.240;16.496;2023-04-06T07:54:08;9.55;;;5.75;;
41179;SDS011;26913;48.240;16.496;2023-04-06T07:56:34;6.40;;;4.75;;
41179;SDS011;26913;48.240;16.496;2023-04-06T07:58:59;10.82;;;4.57;;
41179;SDS011;26913;48.240;16.496;2023-04-06T08:01:27;7.57;;;4.15;;
41179;SDS011;26913;48.240;16.496;2023-04-06T08:03:53;10.65;;;5.07;;
41179;SDS011;26913;48.240;16.496;2023-04-06T08:06:20;22.35;;;5.55;;
41179;SDS011;26913;48.240;16.496;2023-04-06T08:08:46;12.50;;;4.90;;
41179;SDS011;26913;48.240;16.496;2023-04-06T08:11:12;13.15;;;5.22;;
41179;SDS011;26913;48.240;16.496;2023-04-06T08:13:37;7.55;;;4.55;;
41179;SDS011;26913;48.240;16.496;2023-04-06T08:16:03;9.30;;;4.95;;
41179;SDS011;26913;48.240;16.496;2023-04-06T08:18:28;12.30;;;5.32;;
41179;SDS011;26913;48.240;16.496;2023-04-06T08:20:55;7.40;;;4.85;;
41179;SDS011;26913;48.240;16.496;2023-04-06T08:23:20;6.28;;;4.47;;
41179;SDS011;26913;48.240;16.496;2023-04-06T08:25:46;6.55;;;5.18;;
41179;SDS011;26913;48.240;16.496;2023-04-06T08:28:11;7.63;;;4.97;;
41179;SDS011;26913;48.240;16.496;2023-04-06T08:30:39;8.52;;;5.15;;
41179;SDS011;26913;48.240;16.496;2023-04-06T08:33:05;7.97;;;5.07;;
41179;SDS011;26913;48.240;16.496;2023-04-06T08:35:31;5.85;;;4.63;;
41179;SDS011;26913;48.240;16.496;2023-04-06T08:37:56;8.82;;;5.10;;
41179;SDS011;26913;48.240;16.496;2023-04-06T08:40:22;13.00;;;5.50;;
41179;SDS011;26913;48.240;16.496;2023-04-06T08:42:57;12.15;;;4.88;;
41179;SDS011;26913;48.240;16.496;2023-04-06T08:45:24;9.65;;;4.82;;
41179;SDS011;26913;48.240;16.496;2023-04-06T08:47:50;14.65;;;4.25;;
41179;SDS011;26913;48.240;16.496;2023-04-06T08:50:17;14.45;;;4.32;;
41179;SDS011;26913;48.240;16.496;2023-04-06T08:52:43;7.85;;;3.80;;
41179;SDS011;26913;48.240;16.496;2023-04-06T08:55:12;15.07;;;4.05;;
41179;SDS011;26913;48.240;16.496;2023-04-06T08:57:37;5.15;;;4.40;;
41179;SDS011;26913;48.240;16.496;2023-04-06T09:00:03;8.40;;;4.57;;
41179;SDS011;26913;48.240;16.496;2023-04-06T09:02:29;7.35;;;4.28;;
41179;SDS011;26913;48.240;16.496;2023-04-06T09:04:55;7.13;;;4.40;;
41179;SDS011;26913;48.240;16.496;2023-04-06T09:07:21;8.55;;;4.00;;
41179;SDS011;26913;48.240;16.496;2023-04-06T09:09:47;6.55;;;4.15;;
41179;SDS011;26913;48.240;16.496;2023-04-06T09:12:25;3.92;;;3.50;;
41179;SDS011;26913;48.240;16.496;2023-04-06T09:14:55;11.18;;;3.58;;
41179;SDS011;26913;48.240;16.496;2023-04-06T09:17:22;5.10;;;2.88;;
41179;SDS011;26913;48.240;16.496;2023-04-06T09:19:48;10.52;;;3.05;;
41179;SDS011;26913;48.240;16.496;2023-04-06T09:22:13;6.32;;;2.88;;
41179;SDS011;26913;48.240;16.496;2023-04-06T09:24:39;11.25;;;2.63;;
41179;SDS011;26913;48.240;16.496;2023-04-06T09:27:12;7.63;;;2.40;;
41179;SDS011;26913;48.240;16.496;2023-04-06T09:29:38;4.55;;;1.77;;
41179;SDS011;26913;48.240;16.496;2023-04-06T09:32:06;7.75;;;2.30;;
41179;SDS011;26913;48.240;16.496;2023-04-06T09:34:36;5.63;;;1.92;;
41179;SDS011;26913;48.240;16.496;2023-04-06T09:37:18;8.25;;;3.22;;
41179;SDS011;26913;48.240;16.496;2023-04-06T09:39:44;5.68;;;1.92;;
41179;SDS011;26913;48.240;16.496;2023-04-06T09:42:11;4.18;;;2.40;;
41179;SDS011;26913;48.240;16.496;2023-04-06T09:44:48;2.83;;;2.20;;
41179;SDS011;26913;48.240;16.496;2023-04-06T09:47:13;7.78;;;2.83;;
41179;SDS011;26913;48.240;16.496;2023-04-06T09:49:39;4.95;;;2.53;;
41179;SDS011;26913;48.240;16.496;2023-04-06T09:52:05;7.28;;;2.50;;
41179;SDS011;26913;48.240;16.496;2023-04-06T09:54:35;6.18;;;2.60;;
41179;SDS011;26913;48.240;16.496;2023-04-06T09:57:07;5.90;;;3.00;;
41179;SDS011;26913;48.240;16.496;2023-04-06T10:02:33;4.38;;;2.03;;
41179;SDS011;26913;48.240;16.496;2023-04-06T10:08:10;8.52;;;1.60;;
41179;SDS011;26913;48.240;16.496;2023-04-06T10:10:36;4.20;;;1.48;;
41179;SDS011;26913;48.240;16.496;2023-04-06T10:13:02;7.25;;;1.42;;
41179;SDS011;26913;48.240;16.496;2023-04-06T10:15:29;5.85;;;1.90;;
41179;SDS011;26913;48.240;16.496;2023-04-06T10:17:57;5.35;;;1.10;;
41179;SDS011;26913;48.240;16.496;2023-04-06T10:20:25;13.38;;;1.58;;
41179;SDS011;26913;48.240;16.496;2023-04-06T10:23:13;7.10;;;1.10;;
41179;SDS011;26913;48.240;16.496;2023-04-06T10:28:42;7.55;;;1.67;;
41179;SDS011;26913;48.240;16.496;2023-04-06T10:31:08;4.15;;;1.13;;
41179;SDS011;26913;48.240;16.496;2023-04-06T10:33:33;1.48;;;0.90;;
41179;SDS011;26913;48.240;16.496;2023-04-06T10:36:12;2.65;;;1.02;;
41179;SDS011;26913;48.240;16.496;2023-04-06T10:38:39;9.98;;;1.00;;
41179;SDS011;26913;48.240;16.496;2023-04-06T10:41:05;6.72;;;1.48;;
41179;SDS011;26913;48.240;16.496;2023-04-06T10:43:35;5.95;;;1.02;;
41179;SDS011;26913;48.240;16.496;2023-04-06T10:46:01;7.95;;;1.20;;
41179;SDS011;26913;48.240;16.496;2023-04-06T10:53:31;8.32;;;1.40;;
41179;SDS011;26913;48.240;16.496;2023-04-06T10:55:58;14.13;;;2.00;;
41179;SDS011;26913;48.240;16.496;2023-04-06T10:58:25;4.47;;;1.20;;
41179;SDS011;26913;48.240;16.496;2023-04-06T11:00:52;1.80;;;1.10;;
41179;SDS011;26913;48.240;16.496;2023-04-06T11:03:19;10.60;;;1.40;;
41179;SDS011;26913;48.240;16.496;2023-04-06T11:05:44;7.38;;;1.52;;
41179;SDS011;26913;48.240;16.496;2023-04-06T11:08:21;11.77;;;1.23;;
41179;SDS011;26913;48.240;16.496;2023-04-06T11:11:05;17.75;;;1.90;;
41179;SDS011;26913;48.240;16.496;2023-04-06T11:18:49;6.32;;;0.85;;
41179;SDS011;26913;48.240;16.496;2023-04-06T11:21:20;9.00;;;1.70;;
41179;SDS011;26913;48.240;16.496;2023-04-06T11:26:31;5.25;;;1.10;;
41179;SDS011;26913;48.240;16.496;2023-04-06T11:28:57;5.38;;;1.08;;
41179;SDS011;26913;48.240;16.496;2023-04-06T11:31:25;8.40;;;1.05;;
41179;SDS011;26913;48.240;16.496;2023-04-06T11:33:55;7.50;;;1.25;;
41179;SDS011;26913;48.240;16.496;2023-04-06T11:36:21;7.57;;;0.90;;
41179;SDS011;26913;48.240;16.496;2023-04-06T11:38:47;5.03;;;1.50;;
41179;SDS011;26913;48.240;16.496;2023-04-06T11:41:12;12.18;;;1.30;;
41179;SDS011;26913;48.240;16.496;2023-04-06T11:43:37;6.82;;;1.05;;
41179;SDS011;26913;48.240;16.496;2023-04-06T11:46:03;5.90;;;1.67;;
41179;SDS011;26913;48.240;16.496;2023-04-06T11:48:29;7.45;;;1.65;;
41179;SDS011;26913;48.240;16.496;2023-04-06T11:50:56;4.82;;;1.02;;
41179;SDS011;26913;48.240;16.496;2023-04-06T11:53:26;4.63;;;1.08;;
41179;SDS011;26913;48.240;16.496;2023-04-06T11:55:53;3.17;;;1.20;;
41179;SDS011;26913;48.240;16.496;2023-04-06T11:58:18;19.45;;;2.40;;
41179;SDS011;26913;48.240;16.496;2023-04-06T12:00:44;41.53;;;3.92;;
41179;SDS011;26913;48.240;16.496;2023-04-06T12:03:12;11.27;;;2.05;;
41179;SDS011;26913;48.240;16.496;2023-04-06T12:05:37;3.92;;;1.77;;
41179;SDS011;26913;48.240;16.496;2023-04-06T12:08:03;5.07;;;1.38;;
41179;SDS011;26913;48.240;16.496;2023-04-06T12:10:29;4.90;;;1.15;;
41179;SDS011;26913;48.240;16.496;2023-04-06T12:12:55;2.40;;;1.33;;
41179;SDS011;26913;48.240;16.496;2023-04-06T12:15:20;25.13;;;2.95;;
41179;SDS011;26913;48.240;16.496;2023-04-06T12:17:46;3.28;;;1.45;;
41179;SDS011;26913;48.240;16.496;2023-04-06T12:20:12;4.63;;;1.35;;
41179;SDS011;26913;48.240;16.496;2023-04-06T12:22:38;5.03;;;1.38;;
41179;SDS011;26913;48.240;16.496;2023-04-06T12:25:04;2.00;;;1.48;;
41179;SDS011;26913;48.240;16.496;2023-04-06T12:27:31;13.02;;;1.58;;
41179;SDS011;26913;48.240;16.496;2023-04-06T12:29:57;3.47;;;1.17;;
41179;SDS011;26913;48.240;16.496;2023-04-06T12:32:23;1.00;;;0.90;;
41179;SDS011;26913;48.240;16.496;2023-04-06T12:34:48;2.00;;;1.20;;
41179;SDS011;26913;48.240;16.496;2023-04-06T12:37:13;8.18;;;1.58;;
41179;SDS011;26913;48.240;16.496;2023-04-06T12:39:40;9.27;;;1.80;;
41179;SDS011;26913;48.240;16.496;2023-04-06T12:42:05;6.90;;;1.35;;
41179;SDS011;26913;48.240;16.496;2023-04-06T12:44:31;16.52;;;1.75;;
41179;SDS011;26913;48.240;16.496;2023-04-06T12:46:56;6.63;;;1.50;;
41179;SDS011;26913;48.240;16.496;2023-04-06T12:49:22;5.65;;;1.77;;
41179;SDS011;26913;48.240;16.496;2023-04-06T12:51:47;7.30;;;1.20;;
41179;SDS011;26913;48.240;16.496;2023-04-06T12:54:13;10.25;;;1.33;;
41179;SDS011;26913;48.240;16.496;2023-04-06T12:56:38;3.97;;;1.27;;
41179;SDS011;26913;48.240;16.496;2023-04-06T12:59:03;3.30;;;0.85;;
41179;SDS011;26913;48.240;16.496;2023-04-06T13:01:30;10.32;;;1.38;;
41179;SDS011;26913;48.240;16.496;2023-04-06T13:03:56;6.07;;;1.50;;
41179;SDS011;26913;48.240;16.496;2023-04-06T13:06:22;4.32;;;0.88;;
41179;SDS011;26913;48.240;16.496;2023-04-06T13:08:47;5.75;;;1.25;;
41179;SDS011;26913;48.240;16.496;2023-04-06T13:11:15;3.38;;;1.38;;
41179;SDS011;26913;48.240;16.496;2023-04-06T13:13:40;6.07;;;1.10;;
41179;SDS011;26913;48.240;16.496;2023-04-06T13:16:07;3.85;;;0.85;;
41179;SDS011;26913;48.240;16.496;2023-04-06T13:18:33;11.18;;;1.77;;
41179;SDS011;26913;48.240;16.496;2023-04-06T13:20:59;10.02;;;1.58;;
41179;SDS011;26913;48.240;16.496;2023-04-06T13:23:25;8.45;;;1.42;;
41179;SDS011;26913;48.240;16.496;2023-04-06T13:25:57;14.45;;;2.28;;
41179;SDS011;26913;48.240;16.496;2023-04-06T13:28:28;4.78;;;1.80;;
41179;SDS011;26913;48.240;16.496;2023-04-06T13:30:54;4.82;;;1.25;;
41179;SDS011;26913;48.240;16.496;2023-04-06T13:33:23;1.25;;;1.08;;
41179;SDS011;26913;48.240;16.496;2023-04-06T13:35:49;22.95;;;2.40;;
41179;SDS011;26913;48.240;16.496;2023-04-06T13:38:14;11.68;;;2.65;;
41179;SDS011;26913;48.240;16.496;2023-04-06T13:40:40;25.33;;;2.53;;
41179;SDS011;26913;48.240;16.496;2023-04-06T13:43:06;12.15;;;1.40;;
41179;SDS011;26913;48.240;16.496;2023-04-06T13:45:32;4.70;;;1.65;;
41179;SDS011;26913;48.240;16.496;2023-04-06T13:47:57;9.30;;;1.65;;
41179;SDS011;26913;48.240;16.496;2023-04-06T13:50:25;11.15;;;2.40;;
41179;SDS011;26913;48.240;16.496;2023-04-06T13:52:51;8.85;;;1.58;;
41179;SDS011;26913;48.240;16.496;2023-04-06T13:55:16;13.07;;;2.45;;
41179;SDS011;26913;48.240;16.496;2023-04-06T13:57:42;5.88;;;1.65;;
41179;SDS011;26913;48.240;16.496;2023-04-06T14:00:07;5.60;;;1.55;;
41179;SDS011;26913;48.240;16.496;2023-04-06T14:02:34;11.48;;;1.98;;
41179;SDS011;26913;48.240;16.496;2023-04-06T14:05:00;9.98;;;1.85;;
41179;SDS011;26913;48.240;16.496;2023-04-06T14:07:25;8.52;;;1.55;;
41179;SDS011;26913;48.240;16.496;2023-04-06T14:09:51;3.63;;;1.63;;
41179;SDS011;26913;48.240;16.496;2023-04-06T14:12:17;9.80;;;2.10;;
41179;SDS011;26913;48.240;16.496;2023-04-06T14:14:43;19.40;;;1.60;;
41179;SDS011;26913;48.240;16.496;2023-04-06T14:17:08;3.72;;;1.27;;
41179;SDS011;26913;48.240;16.496;2023-04-06T14:19:34;3.28;;;1.20;;
41179;SDS011;26913;48.240;16.496;2023-04-06T14:22:01;9.63;;;1.10;;
41179;SDS011;26913;48.240;16.496;2023-04-06T14:24:26;18.38;;;2.45;;
41179;SDS011;26913;48.240;16.496;2023-04-06T14:26:52;9.00;;;1.38;;
41179;SDS011;26913;48.240;16.496;2023-04-06T14:29:18;3.92;;;1.65;;
41179;SDS011;26913;48.240;16.496;2023-04-06T14:31:44;9.23;;;1.55;;
41179;SDS011;26913;48.240;16.496;2023-04-06T14:34:11;7.55;;;1.55;;
41179;SDS011;26913;48.240;16.496;2023-04-06T14:36:37;9.70;;;1.55;;
41179;SDS011;26913;48.240;16.496;2023-04-06T14:39:06;3.05;;;1.40;;
41179;SDS011;26913;48.240;16.496;2023-04-06T14:41:32;2.00;;;0.95;;
41179;SDS011;26913;48.240;16.496;2023-04-06T14:43:58;8.63;;;1.95;;
41179;SDS011;26913;48.240;16.496;2023-04-06T14:46:23;11.43;;;1.40;;